AAL5050 KERI-KCLT
Flight info
| Callsign | AAL5050 |
|---|---|
| Flight time | N/A |
| Altitude | 38000 |
| Route | EWC AHTIY BURGS HVQ LNDIZ PARQR4 |
| Aircraft | A20N/H-SDE2E3FGHIRWXY/LB1 |
Departure
| Time | 2026-04-19 19:17 |
|---|---|
| Airport | Erie International Tom Ridge Field (KERI) |
Arrival
| Time | N/A |
|---|---|
| Airport | Charlotte Douglas International Airport (KCLT) |
| Time | Latitude | Longitude | Altitude | Speed | Heading |
|---|---|---|---|---|---|
| 2026-04-19 18:51 | 42.08261 | -80.18116 | 739 ft | 0 kts | 302° |
| 2026-04-19 19:03 | 42.08259 | -80.18111 | 738 ft | 2 kts | 302° |
| 2026-04-19 19:04 | 42.08250 | -80.18092 | 738 ft | 2 kts | 302° |
| 2026-04-19 19:04 | 42.08243 | -80.18078 | 738 ft | 0 kts | 302° |
| 2026-04-19 19:05 | 42.08245 | -80.18079 | 738 ft | 0 kts | 308° |
| 2026-04-19 19:06 | 42.08248 | -80.18078 | 736 ft | 1 kts | 353° |
| 2026-04-19 19:06 | 42.08251 | -80.18071 | 736 ft | 2 kts | 41° |
| 2026-04-19 19:06 | 42.08279 | -80.18038 | 738 ft | 9 kts | 41° |
| 2026-04-19 19:06 | 42.08320 | -80.17952 | 739 ft | 13 kts | 89° |
| 2026-04-19 19:07 | 42.08302 | -80.17809 | 737 ft | 19 kts | 99° |
| 2026-04-19 19:07 | 42.08281 | -80.17652 | 738 ft | 21 kts | 97° |
| 2026-04-19 19:07 | 42.08277 | -80.17611 | 738 ft | 0 kts | 96° |
| 2026-04-19 19:08 | 42.08277 | -80.17610 | 738 ft | 1 kts | 96° |
| 2026-04-19 19:08 | 42.08276 | -80.17585 | 738 ft | 5 kts | 92° |
| 2026-04-19 19:09 | 42.08284 | -80.17523 | 738 ft | 9 kts | 66° |
| 2026-04-19 19:09 | 42.08324 | -80.17441 | 738 ft | 12 kts | 56° |
| 2026-04-19 19:09 | 42.08378 | -80.17334 | 735 ft | 15 kts | 54° |
| 2026-04-19 19:09 | 42.08448 | -80.17207 | 737 ft | 18 kts | 53° |
| 2026-04-19 19:10 | 42.08526 | -80.17060 | 736 ft | 21 kts | 55° |
| 2026-04-19 19:10 | 42.08614 | -80.16892 | 735 ft | 23 kts | 54° |
| 2026-04-19 19:10 | 42.08714 | -80.16705 | 735 ft | 26 kts | 55° |
| 2026-04-19 19:10 | 42.08828 | -80.16508 | 733 ft | 27 kts | 53° |
| 2026-04-19 19:11 | 42.08945 | -80.16290 | 733 ft | 30 kts | 54° |
| 2026-04-19 19:11 | 42.09023 | -80.16141 | 733 ft | 18 kts | 54° |
| 2026-04-19 19:11 | 42.09054 | -80.16081 | 733 ft | 0 kts | 55° |
| 2026-04-19 19:15 | 42.09056 | -80.16078 | 731 ft | 2 kts | 55° |
| 2026-04-19 19:15 | 42.09072 | -80.16045 | 732 ft | 6 kts | 58° |
| 2026-04-19 19:15 | 42.09062 | -80.15982 | 732 ft | 9 kts | 130° |
| 2026-04-19 19:16 | 42.08999 | -80.15949 | 732 ft | 11 kts | 199° |
| 2026-04-19 19:16 | 42.08941 | -80.16046 | 733 ft | 24 kts | 235° |
| 2026-04-19 19:16 | 42.08660 | -80.16573 | 735 ft | 110 kts | 234° |
| 2026-04-19 19:16 | 42.08096 | -80.17600 | 957 ft | 153 kts | 236° |
| 2026-04-19 19:17 | 42.07403 | -80.18944 | 1181 ft | 195 kts | 240° |
| 2026-04-19 19:17 | 42.06877 | -80.20292 | 3038 ft | 146 kts | 251° |
| 2026-04-19 19:17 | 42.06401 | -80.21697 | 3550 ft | 198 kts | 244° |
| 2026-04-19 19:17 | 42.05492 | -80.23628 | 2666 ft | 291 kts | 239° |
| 2026-04-19 19:18 | 42.04391 | -80.25759 | 3572 ft | 255 kts | 237° |
| 2026-04-19 19:18 | 42.03197 | -80.27407 | 4177 ft | 242 kts | 217° |
| 2026-04-19 19:18 | 42.01703 | -80.28121 | 4986 ft | 216 kts | 193° |
| 2026-04-19 19:18 | 42.00250 | -80.27995 | 6014 ft | 220 kts | 172° |
| 2026-04-19 19:19 | 41.98881 | -80.27154 | 7299 ft | 224 kts | 155° |
| 2026-04-19 19:19 | 41.97391 | -80.25876 | 7420 ft | 280 kts | 150° |
| 2026-04-19 19:19 | 41.95953 | -80.24402 | 9367 ft | 225 kts | 144° |
| 2026-04-19 19:20 | 41.93648 | -80.21521 | 11346 ft | 243 kts | 141° |
| 2026-04-19 19:20 | 41.92357 | -80.19929 | 12033 ft | 258 kts | 150° |
| 2026-04-19 19:20 | 41.90722 | -80.18975 | 12787 ft | 260 kts | 175° |
| 2026-04-19 19:20 | 41.88896 | -80.18578 | 13545 ft | 273 kts | 180° |
| 2026-04-19 19:21 | 41.86953 | -80.18263 | 14270 ft | 289 kts | 180° |
| 2026-04-19 19:21 | 41.84894 | -80.17952 | 14961 ft | 306 kts | 181° |
| 2026-04-19 19:21 | 41.82719 | -80.17633 | 15685 ft | 322 kts | 181° |
| 2026-04-19 19:21 | 41.80467 | -80.17306 | 16412 ft | 337 kts | 181° |
| 2026-04-19 19:22 | 41.78084 | -80.16963 | 17161 ft | 352 kts | 181° |
| 2026-04-19 19:22 | 41.75606 | -80.16607 | 17924 ft | 365 kts | 181° |
| 2026-04-19 19:22 | 41.73035 | -80.16237 | 18660 ft | 378 kts | 181° |
| 2026-04-19 19:22 | 41.70380 | -80.15852 | 19341 ft | 390 kts | 181° |
| 2026-04-19 19:23 | 41.67644 | -80.15451 | 20040 ft | 401 kts | 181° |
| 2026-04-19 19:23 | 41.64840 | -80.15032 | 20756 ft | 410 kts | 181° |
| 2026-04-19 19:23 | 41.61968 | -80.14595 | 21480 ft | 419 kts | 181° |
| 2026-04-19 19:23 | 41.59045 | -80.14139 | 22214 ft | 428 kts | 181° |
| 2026-04-19 19:24 | 41.56108 | -80.13670 | 22964 ft | 435 kts | 181° |
| 2026-04-19 19:24 | 41.53084 | -80.13311 | 23720 ft | 434 kts | 188° |
| 2026-04-19 19:24 | 41.50068 | -80.13473 | 24348 ft | 436 kts | 191° |
| 2026-04-19 19:24 | 41.47030 | -80.13677 | 24985 ft | 439 kts | 191° |
| 2026-04-19 19:25 | 41.43980 | -80.13872 | 25636 ft | 439 kts | 191° |
| 2026-04-19 19:25 | 41.40929 | -80.14051 | 26301 ft | 438 kts | 191° |
| 2026-04-19 19:25 | 41.37895 | -80.14212 | 26983 ft | 435 kts | 191° |
| 2026-04-19 19:25 | 41.34885 | -80.14353 | 27684 ft | 431 kts | 191° |
| 2026-04-19 19:26 | 41.32913 | -80.14434 | 28156 ft | 428 kts | 191° |
| 2026-04-19 19:26 | 41.29947 | -80.14442 | 28890 ft | 430 kts | 184° |
| 2026-04-19 19:26 | 41.26966 | -80.13874 | 29644 ft | 431 kts | 181° |
| 2026-04-19 19:26 | 41.23507 | -80.13039 | 30687 ft | 423 kts | 179° |
| 2026-04-19 19:27 | 41.20613 | -80.12212 | 31017 ft | 431 kts | 178° |
| 2026-04-19 19:27 | 41.17649 | -80.11236 | 30882 ft | 448 kts | 175° |
| 2026-04-19 19:27 | 41.15586 | -80.10470 | 30671 ft | 461 kts | 174° |
| 2026-04-19 19:27 | 41.11465 | -80.08664 | 30528 ft | 478 kts | 170° |
| 2026-04-19 19:28 | 41.09455 | -80.07554 | 31669 ft | 449 kts | 166° |
| 2026-04-19 19:28 | 41.06788 | -80.05946 | 33860 ft | 402 kts | 171° |
| 2026-04-19 19:28 | 41.04211 | -80.04812 | 34802 ft | 386 kts | 177° |
| 2026-04-19 19:28 | 41.01580 | -80.04062 | 34079 ft | 407 kts | 181° |
| 2026-04-19 19:29 | 40.98712 | -80.03400 | 33492 ft | 418 kts | 181° |
| 2026-04-19 19:29 | 40.93071 | -80.02191 | 34127 ft | 387 kts | 188° |
| 2026-04-19 19:29 | 40.90509 | -80.02200 | 35151 ft | 355 kts | 195° |
| 2026-04-19 19:30 | 40.88092 | -80.02620 | 35612 ft | 344 kts | 202° |
| 2026-04-19 19:30 | 40.85840 | -80.03343 | 36394 ft | 322 kts | 206° |
| 2026-04-19 19:30 | 40.83775 | -80.04208 | 37215 ft | 303 kts | 209° |
| 2026-04-19 19:30 | 40.81806 | -80.05158 | 37423 ft | 305 kts | 211° |
| 2026-04-19 19:31 | 40.79794 | -80.06208 | 37341 ft | 309 kts | 211° |
| 2026-04-19 19:31 | 40.77915 | -80.07207 | 38311 ft | 282 kts | 212° |
| 2026-04-19 19:31 | 40.76088 | -80.08194 | 38335 ft | 289 kts | 213° |
| 2026-04-19 19:31 | 40.74202 | -80.09272 | 38047 ft | 301 kts | 213° |
| 2026-04-19 19:32 | 40.72292 | -80.10419 | 38169 ft | 299 kts | 214° |
| 2026-04-19 19:32 | 40.70440 | -80.11561 | 38656 ft | 288 kts | 215° |
| 2026-04-19 19:32 | 40.68634 | -80.12705 | 38675 ft | 293 kts | 216° |
| 2026-04-19 19:32 | 40.66785 | -80.13933 | 38471 ft | 301 kts | 216° |
| 2026-04-19 19:33 | 40.64932 | -80.15213 | 38622 ft | 299 kts | 217° |
| 2026-04-19 19:33 | 40.61182 | -80.17932 | 37957 ft | 329 kts | 218° |
| 2026-04-19 19:33 | 40.59133 | -80.19492 | 37451 ft | 348 kts | 218° |
| 2026-04-19 19:34 | 40.57063 | -80.21059 | 37948 ft | 343 kts | 216° |
| 2026-04-19 19:34 | 40.54785 | -80.22090 | 38099 ft | 365 kts | 197° |
| 2026-04-19 19:34 | 40.52189 | -80.22285 | 38134 ft | 381 kts | 191° |
| 2026-04-19 19:35 | 40.46825 | -80.22636 | 38135 ft | 390 kts | 195° |
| 2026-04-19 19:35 | 40.41328 | -80.23349 | 38135 ft | 404 kts | 196° |
| 2026-04-19 19:36 | 40.35639 | -80.24134 | 38137 ft | 417 kts | 196° |
| 2026-04-19 19:36 | 40.29803 | -80.24970 | 38172 ft | 425 kts | 196° |
| 2026-04-19 19:37 | 40.23957 | -80.25816 | 38178 ft | 426 kts | 196° |
| 2026-04-19 19:37 | 40.18062 | -80.26671 | 38182 ft | 426 kts | 196° |
| 2026-04-19 19:38 | 40.12170 | -80.27522 | 38185 ft | 426 kts | 196° |
| 2026-04-19 19:38 | 40.06325 | -80.28566 | 38179 ft | 420 kts | 200° |
| 2026-04-19 19:39 | 40.00644 | -80.30091 | 38177 ft | 419 kts | 201° |
| 2026-04-19 19:39 | 39.94930 | -80.31641 | 38173 ft | 419 kts | 201° |
| 2026-04-19 19:40 | 39.89314 | -80.33468 | 38163 ft | 406 kts | 212° |
| 2026-04-19 19:40 | 39.84447 | -80.36972 | 38165 ft | 396 kts | 221° |
| 2026-04-19 19:41 | 39.79889 | -80.41003 | 38157 ft | 396 kts | 221° |
| 2026-04-19 19:41 | 39.75368 | -80.45009 | 38147 ft | 396 kts | 221° |
| 2026-04-19 19:42 | 39.70819 | -80.49036 | 38150 ft | 396 kts | 221° |
| 2026-04-19 19:42 | 39.66277 | -80.53052 | 38153 ft | 395 kts | 221° |
| 2026-04-19 19:43 | 39.61971 | -80.57386 | 38155 ft | 390 kts | 226° |
| 2026-04-19 19:43 | 39.57825 | -80.61908 | 38155 ft | 389 kts | 226° |
| 2026-04-19 19:44 | 39.53684 | -80.66423 | 38163 ft | 389 kts | 226° |
| 2026-04-19 19:44 | 39.50172 | -80.71502 | 38167 ft | 379 kts | 240° |
| 2026-04-19 19:45 | 39.47384 | -80.77269 | 38167 ft | 378 kts | 241° |
| 2026-04-19 19:45 | 39.44124 | -80.82654 | 38170 ft | 383 kts | 232° |
| 2026-04-19 19:46 | 39.40181 | -80.87345 | 38174 ft | 391 kts | 222° |
| 2026-04-19 19:46 | 39.35671 | -80.91330 | 38170 ft | 393 kts | 221° |
| 2026-04-19 19:47 | 39.31179 | -80.95251 | 38175 ft | 393 kts | 221° |
| 2026-04-19 19:47 | 39.26651 | -80.99199 | 38174 ft | 392 kts | 221° |
| 2026-04-19 19:48 | 39.22132 | -81.03133 | 38179 ft | 392 kts | 221° |
| 2026-04-19 19:48 | 39.17614 | -81.07062 | 38174 ft | 392 kts | 221° |
| 2026-04-19 19:49 | 39.13092 | -81.10972 | 38185 ft | 393 kts | 219° |
| 2026-04-19 19:49 | 39.08300 | -81.14372 | 38190 ft | 397 kts | 217° |
| 2026-04-19 19:50 | 39.03436 | -81.17722 | 38185 ft | 396 kts | 217° |
| 2026-04-19 19:50 | 38.98573 | -81.21065 | 38194 ft | 396 kts | 217° |
| 2026-04-19 19:51 | 38.93712 | -81.24403 | 38191 ft | 396 kts | 217° |
| 2026-04-19 19:51 | 38.88886 | -81.27717 | 38194 ft | 396 kts | 217° |
| 2026-04-19 19:52 | 38.84032 | -81.31044 | 38196 ft | 395 kts | 217° |
| 2026-04-19 19:52 | 38.79357 | -81.34644 | 38194 ft | 390 kts | 221° |
| 2026-04-19 19:53 | 38.74862 | -81.38521 | 38202 ft | 389 kts | 222° |
| 2026-04-19 19:53 | 38.70408 | -81.42366 | 38204 ft | 388 kts | 222° |
| 2026-04-19 19:54 | 38.66086 | -81.46436 | 38208 ft | 383 kts | 226° |
| 2026-04-19 19:54 | 38.62000 | -81.50804 | 38211 ft | 383 kts | 227° |
| 2026-04-19 19:55 | 38.57926 | -81.55170 | 38216 ft | 382 kts | 227° |
| 2026-04-19 19:55 | 38.53857 | -81.59535 | 38220 ft | 382 kts | 227° |
| 2026-04-19 19:56 | 38.49817 | -81.63861 | 38219 ft | 381 kts | 227° |
| 2026-04-19 19:56 | 38.45753 | -81.68215 | 38218 ft | 382 kts | 227° |
| 2026-04-19 19:57 | 38.41623 | -81.72483 | 38218 ft | 383 kts | 225° |
| 2026-04-19 19:57 | 38.37098 | -81.76150 | 38214 ft | 403 kts | 207° |
| 2026-04-19 19:57 | 38.34256 | -81.76715 | 38218 ft | 428 kts | 190° |
| 2026-04-19 19:58 | 38.31274 | -81.76311 | 38221 ft | 442 kts | 183° |
| 2026-04-19 19:58 | 38.25189 | -81.74996 | 38212 ft | 441 kts | 184° |
| 2026-04-19 19:59 | 38.19151 | -81.74253 | 38213 ft | 434 kts | 187° |
| 2026-04-19 19:59 | 38.13138 | -81.73600 | 38209 ft | 434 kts | 187° |
| 2026-04-19 20:00 | 38.07188 | -81.73088 | 38208 ft | 426 kts | 191° |
| 2026-04-19 20:00 | 38.01281 | -81.73113 | 38203 ft | 425 kts | 192° |
| 2026-04-19 20:01 | 37.95379 | -81.73167 | 38203 ft | 423 kts | 193° |
| 2026-04-19 20:01 | 37.89602 | -81.73740 | 38200 ft | 415 kts | 197° |
| 2026-04-19 20:02 | 37.83861 | -81.74458 | 38198 ft | 414 kts | 197° |
| 2026-04-19 20:02 | 37.78172 | -81.75177 | 38195 ft | 413 kts | 197° |
| 2026-04-19 20:03 | 37.72448 | -81.75878 | 37755 ft | 412 kts | 195° |
| 2026-04-19 20:03 | 37.69578 | -81.75977 | 37339 ft | 413 kts | 192° |
| 2026-04-19 20:03 | 37.66721 | -81.75945 | 36945 ft | 408 kts | 192° |
| 2026-04-19 20:03 | 37.63901 | -81.75880 | 36554 ft | 403 kts | 192° |
| 2026-04-19 20:04 | 37.61113 | -81.75790 | 36169 ft | 398 kts | 192° |
| 2026-04-19 20:04 | 37.58368 | -81.75676 | 35797 ft | 393 kts | 192° |
| 2026-04-19 20:04 | 37.55653 | -81.75534 | 35424 ft | 387 kts | 192° |
| 2026-04-19 20:04 | 37.53019 | -81.75368 | 35068 ft | 382 kts | 192° |
| 2026-04-19 20:05 | 37.50386 | -81.75178 | 34700 ft | 377 kts | 192° |
| 2026-04-19 20:05 | 37.47778 | -81.74964 | 34345 ft | 373 kts | 192° |
| 2026-04-19 20:05 | 37.45205 | -81.74731 | 33962 ft | 369 kts | 192° |
| 2026-04-19 20:05 | 37.42662 | -81.74481 | 33543 ft | 363 kts | 192° |
| 2026-04-19 20:06 | 37.40166 | -81.74219 | 33212 ft | 356 kts | 192° |
| 2026-04-19 20:06 | 37.37738 | -81.73939 | 33177 ft | 344 kts | 192° |
| 2026-04-19 20:06 | 37.35397 | -81.73635 | 33187 ft | 334 kts | 192° |
| 2026-04-19 20:07 | 37.30828 | -81.72996 | 33195 ft | 329 kts | 192° |
| 2026-04-19 20:07 | 37.26320 | -81.72349 | 33194 ft | 328 kts | 192° |
| 2026-04-19 20:08 | 37.21788 | -81.71696 | 33197 ft | 328 kts | 192° |
| 2026-04-19 20:08 | 37.17259 | -81.71042 | 33198 ft | 327 kts | 192° |
| 2026-04-19 20:09 | 37.12738 | -81.70392 | 33203 ft | 326 kts | 193° |
| 2026-04-19 20:09 | 37.08291 | -81.70219 | 32710 ft | 319 kts | 197° |
| 2026-04-19 20:09 | 37.06069 | -81.70183 | 32320 ft | 323 kts | 197° |
| 2026-04-19 20:10 | 37.03773 | -81.70186 | 31952 ft | 347 kts | 197° |
| 2026-04-19 20:10 | 37.01284 | -81.70248 | 31568 ft | 366 kts | 197° |
| 2026-04-19 20:10 | 36.98710 | -81.70340 | 31187 ft | 373 kts | 197° |